sensor_id;sensor_type;location;lat;lon;timestamp;P1;durP1;ratioP1;P2;durP2;ratioP2
545;SDS011;259;53.304;9.816;2024-01-16T00:01:06;0.80;;;0.80;;
545;SDS011;259;53.304;9.816;2024-01-16T00:03:33;1.03;;;0.93;;
545;SDS011;259;53.304;9.816;2024-01-16T00:06:00;0.90;;;0.90;;
545;SDS011;259;53.304;9.816;2024-01-16T00:08:26;0.70;;;0.70;;
545;SDS011;259;53.304;9.816;2024-01-16T00:10:52;0.80;;;0.80;;
545;SDS011;259;53.304;9.816;2024-01-16T00:13:18;0.77;;;0.77;;
545;SDS011;259;53.304;9.816;2024-01-16T00:15:43;1.40;;;1.30;;
545;SDS011;259;53.304;9.816;2024-01-16T00:18:09;0.70;;;0.70;;
545;SDS011;259;53.304;9.816;2024-01-16T00:20:34;0.90;;;0.90;;
545;SDS011;259;53.304;9.816;2024-01-16T00:23:00;0.90;;;0.87;;
545;SDS011;259;53.304;9.816;2024-01-16T00:25:26;1.00;;;1.00;;
545;SDS011;259;53.304;9.816;2024-01-16T00:27:52;0.87;;;0.87;;
545;SDS011;259;53.304;9.816;2024-01-16T00:30:18;1.53;;;1.10;;
545;SDS011;259;53.304;9.816;2024-01-16T00:32:43;1.20;;;1.10;;
545;SDS011;259;53.304;9.816;2024-01-16T00:35:09;1.27;;;1.00;;
545;SDS011;259;53.304;9.816;2024-01-16T00:37:37;1.27;;;1.17;;
545;SDS011;259;53.304;9.816;2024-01-16T00:40:04;1.03;;;1.00;;
545;SDS011;259;53.304;9.816;2024-01-16T00:42:33;1.10;;;1.00;;
545;SDS011;259;53.304;9.816;2024-01-16T00:44:59;1.20;;;1.10;;
545;SDS011;259;53.304;9.816;2024-01-16T00:47:26;1.10;;;1.00;;
545;SDS011;259;53.304;9.816;2024-01-16T00:49:51;0.97;;;0.97;;
545;SDS011;259;53.304;9.816;2024-01-16T00:52:18;0.80;;;0.80;;
545;SDS011;259;53.304;9.816;2024-01-16T00:54:44;0.80;;;0.80;;
545;SDS011;259;53.304;9.816;2024-01-16T00:57:10;0.93;;;0.93;;
545;SDS011;259;53.304;9.816;2024-01-16T00:59:36;1.10;;;0.90;;
545;SDS011;259;53.304;9.816;2024-01-16T01:02:02;1.00;;;0.90;;
545;SDS011;259;53.304;9.816;2024-01-16T01:04:28;1.00;;;0.90;;
545;SDS011;259;53.304;9.816;2024-01-16T01:06:54;1.13;;;1.03;;
545;SDS011;259;53.304;9.816;2024-01-16T01:09:20;1.30;;;1.13;;
545;SDS011;259;53.304;9.816;2024-01-16T01:11:46;1.00;;;0.90;;
545;SDS011;259;53.304;9.816;2024-01-16T01:14:11;1.67;;;1.47;;
545;SDS011;259;53.304;9.816;2024-01-16T01:16:37;1.00;;;0.90;;
545;SDS011;259;53.304;9.816;2024-01-16T01:19:03;1.23;;;1.17;;
545;SDS011;259;53.304;9.816;2024-01-16T01:21:29;0.93;;;0.93;;
545;SDS011;259;53.304;9.816;2024-01-16T01:23:54;1.17;;;1.07;;
545;SDS011;259;53.304;9.816;2024-01-16T01:26:20;0.83;;;0.80;;
545;SDS011;259;53.304;9.816;2024-01-16T01:28:46;1.30;;;0.90;;
545;SDS011;259;53.304;9.816;2024-01-16T01:31:12;1.30;;;1.30;;
545;SDS011;259;53.304;9.816;2024-01-16T01:33:38;1.03;;;0.90;;
545;SDS011;259;53.304;9.816;2024-01-16T01:36:05;1.20;;;1.10;;
545;SDS011;259;53.304;9.816;2024-01-16T01:38:31;1.30;;;1.20;;
545;SDS011;259;53.304;9.816;2024-01-16T01:40:56;0.80;;;0.80;;
545;SDS011;259;53.304;9.816;2024-01-16T01:43:23;1.10;;;1.00;;
545;SDS011;259;53.304;9.816;2024-01-16T01:48:42;1.10;;;1.00;;
545;SDS011;259;53.304;9.816;2024-01-16T01:51:09;1.37;;;1.27;;
545;SDS011;259;53.304;9.816;2024-01-16T01:53:38;0.90;;;0.90;;
545;SDS011;259;53.304;9.816;2024-01-16T01:56:07;1.20;;;1.10;;
545;SDS011;259;53.304;9.816;2024-01-16T01:58:36;0.90;;;0.90;;
545;SDS011;259;53.304;9.816;2024-01-16T02:01:06;1.17;;;1.07;;
545;SDS011;259;53.304;9.816;2024-01-16T02:03:32;1.87;;;0.90;;
545;SDS011;259;53.304;9.816;2024-01-16T02:06:05;0.87;;;0.87;;
545;SDS011;259;53.304;9.816;2024-01-16T02:08:32;1.93;;;1.83;;
545;SDS011;259;53.304;9.816;2024-01-16T02:10:58;1.10;;;1.10;;
545;SDS011;259;53.304;9.816;2024-01-16T02:13:24;1.10;;;1.10;;
545;SDS011;259;53.304;9.816;2024-01-16T02:15:50;1.30;;;1.20;;
545;SDS011;259;53.304;9.816;2024-01-16T02:18:16;1.33;;;1.23;;
545;SDS011;259;53.304;9.816;2024-01-16T02:20:42;1.60;;;1.50;;
545;SDS011;259;53.304;9.816;2024-01-16T02:23:09;1.20;;;1.10;;
545;SDS011;259;53.304;9.816;2024-01-16T02:25:38;1.83;;;1.73;;
545;SDS011;259;53.304;9.816;2024-01-16T02:28:05;1.30;;;1.20;;
545;SDS011;259;53.304;9.816;2024-01-16T02:30:31;1.23;;;1.20;;
545;SDS011;259;53.304;9.816;2024-01-16T02:32:56;1.10;;;1.10;;
545;SDS011;259;53.304;9.816;2024-01-16T02:35:22;1.50;;;1.40;;
545;SDS011;259;53.304;9.816;2024-01-16T02:37:48;1.10;;;1.10;;
545;SDS011;259;53.304;9.816;2024-01-16T02:40:14;1.10;;;1.10;;
545;SDS011;259;53.304;9.816;2024-01-16T02:42:40;1.20;;;1.20;;
545;SDS011;259;53.304;9.816;2024-01-16T02:45:05;1.30;;;1.20;;
545;SDS011;259;53.304;9.816;2024-01-16T02:47:32;1.20;;;1.20;;
545;SDS011;259;53.304;9.816;2024-01-16T02:49:58;1.27;;;1.17;;
545;SDS011;259;53.304;9.816;2024-01-16T02:52:24;1.30;;;1.20;;
545;SDS011;259;53.304;9.816;2024-01-16T02:54:50;1.30;;;1.20;;
545;SDS011;259;53.304;9.816;2024-01-16T02:57:16;1.63;;;1.53;;
545;SDS011;259;53.304;9.816;2024-01-16T02:59:45;1.17;;;1.17;;
545;SDS011;259;53.304;9.816;2024-01-16T03:02:11;1.30;;;1.20;;
545;SDS011;259;53.304;9.816;2024-01-16T03:04:38;1.50;;;1.40;;
545;SDS011;259;53.304;9.816;2024-01-16T03:07:04;1.53;;;1.43;;
545;SDS011;259;53.304;9.816;2024-01-16T03:09:30;1.13;;;1.13;;
545;SDS011;259;53.304;9.816;2024-01-16T03:11:56;1.20;;;1.20;;
545;SDS011;259;53.304;9.816;2024-01-16T03:14:23;1.13;;;1.13;;
545;SDS011;259;53.304;9.816;2024-01-16T03:16:48;1.23;;;1.20;;
545;SDS011;259;53.304;9.816;2024-01-16T03:19:14;1.20;;;1.20;;
545;SDS011;259;53.304;9.816;2024-01-16T03:21:40;1.10;;;1.10;;
545;SDS011;259;53.304;9.816;2024-01-16T03:24:06;1.60;;;1.50;;
545;SDS011;259;53.304;9.816;2024-01-16T03:26:32;1.40;;;1.30;;
545;SDS011;259;53.304;9.816;2024-01-16T03:28:58;1.00;;;1.00;;
545;SDS011;259;53.304;9.816;2024-01-16T03:31:25;1.20;;;1.20;;
545;SDS011;259;53.304;9.816;2024-01-16T03:33:50;1.13;;;1.03;;
545;SDS011;259;53.304;9.816;2024-01-16T03:36:16;1.00;;;1.00;;
545;SDS011;259;53.304;9.816;2024-01-16T03:38:42;1.43;;;1.33;;
545;SDS011;259;53.304;9.816;2024-01-16T03:41:10;1.00;;;1.00;;
545;SDS011;259;53.304;9.816;2024-01-16T03:43:36;1.00;;;1.00;;
545;SDS011;259;53.304;9.816;2024-01-16T03:46:02;1.40;;;1.30;;
545;SDS011;259;53.304;9.816;2024-01-16T03:48:28;1.10;;;1.10;;
545;SDS011;259;53.304;9.816;2024-01-16T03:50:54;1.10;;;1.10;;
545;SDS011;259;53.304;9.816;2024-01-16T03:53:21;1.37;;;1.27;;
545;SDS011;259;53.304;9.816;2024-01-16T03:55:47;1.00;;;0.87;;
545;SDS011;259;53.304;9.816;2024-01-16T03:58:14;1.10;;;1.00;;
545;SDS011;259;53.304;9.816;2024-01-16T04:00:41;1.10;;;1.10;;
545;SDS011;259;53.304;9.816;2024-01-16T04:03:06;1.57;;;1.00;;
545;SDS011;259;53.304;9.816;2024-01-16T04:05:32;1.13;;;1.07;;
545;SDS011;259;53.304;9.816;2024-01-16T04:07:58;0.93;;;0.93;;
545;SDS011;259;53.304;9.816;2024-01-16T04:10:24;1.30;;;1.20;;
545;SDS011;259;53.304;9.816;2024-01-16T04:12:50;1.27;;;1.17;;
545;SDS011;259;53.304;9.816;2024-01-16T04:15:16;0.90;;;0.90;;
545;SDS011;259;53.304;9.816;2024-01-16T04:17:42;1.13;;;1.10;;
545;SDS011;259;53.304;9.816;2024-01-16T04:20:07;1.13;;;1.03;;
545;SDS011;259;53.304;9.816;2024-01-16T04:22:34;1.30;;;1.20;;
545;SDS011;259;53.304;9.816;2024-01-16T04:25:00;0.90;;;0.90;;
545;SDS011;259;53.304;9.816;2024-01-16T04:27:26;0.60;;;0.60;;
545;SDS011;259;53.304;9.816;2024-01-16T04:29:52;0.80;;;0.80;;
545;SDS011;259;53.304;9.816;2024-01-16T04:32:18;0.87;;;0.87;;
545;SDS011;259;53.304;9.816;2024-01-16T04:34:44;0.70;;;0.60;;
545;SDS011;259;53.304;9.816;2024-01-16T04:37:09;0.93;;;0.93;;
545;SDS011;259;53.304;9.816;2024-01-16T04:39:36;0.73;;;0.73;;
545;SDS011;259;53.304;9.816;2024-01-16T04:42:01;1.00;;;0.90;;
545;SDS011;259;53.304;9.816;2024-01-16T04:44:27;0.90;;;0.80;;
545;SDS011;259;53.304;9.816;2024-01-16T04:46:53;0.80;;;0.80;;
545;SDS011;259;53.304;9.816;2024-01-16T04:49:19;1.10;;;1.00;;
545;SDS011;259;53.304;9.816;2024-01-16T04:51:44;0.80;;;0.80;;
545;SDS011;259;53.304;9.816;2024-01-16T04:54:10;1.00;;;0.90;;
545;SDS011;259;53.304;9.816;2024-01-16T04:56:37;0.70;;;0.60;;
545;SDS011;259;53.304;9.816;2024-01-16T04:59:03;0.80;;;0.80;;
545;SDS011;259;53.304;9.816;2024-01-16T05:01:28;0.60;;;0.57;;
545;SDS011;259;53.304;9.816;2024-01-16T05:03:54;0.70;;;0.70;;
545;SDS011;259;53.304;9.816;2024-01-16T05:06:20;1.60;;;1.23;;
545;SDS011;259;53.304;9.816;2024-01-16T05:08:46;0.70;;;0.70;;
545;SDS011;259;53.304;9.816;2024-01-16T05:11:12;1.27;;;0.80;;
545;SDS011;259;53.304;9.816;2024-01-16T05:13:38;0.67;;;0.67;;
545;SDS011;259;53.304;9.816;2024-01-16T05:16:04;1.17;;;0.53;;
545;SDS011;259;53.304;9.816;2024-01-16T05:18:30;0.60;;;0.60;;
545;SDS011;259;53.304;9.816;2024-01-16T05:20:57;0.70;;;0.70;;
545;SDS011;259;53.304;9.816;2024-01-16T05:23:23;0.80;;;0.63;;
545;SDS011;259;53.304;9.816;2024-01-16T05:25:49;0.70;;;0.50;;
545;SDS011;259;53.304;9.816;2024-01-16T05:28:15;0.60;;;0.60;;
545;SDS011;259;53.304;9.816;2024-01-16T05:30:40;0.67;;;0.60;;
545;SDS011;259;53.304;9.816;2024-01-16T05:33:06;1.03;;;0.77;;
545;SDS011;259;53.304;9.816;2024-01-16T05:35:33;0.60;;;0.53;;
545;SDS011;259;53.304;9.816;2024-01-16T05:37:59;0.60;;;0.50;;
545;SDS011;259;53.304;9.816;2024-01-16T05:40:25;0.70;;;0.60;;
545;SDS011;259;53.304;9.816;2024-01-16T05:42:51;0.67;;;0.53;;
545;SDS011;259;53.304;9.816;2024-01-16T05:45:17;0.60;;;0.50;;
545;SDS011;259;53.304;9.816;2024-01-16T05:47:43;1.57;;;0.80;;
545;SDS011;259;53.304;9.816;2024-01-16T05:50:09;0.80;;;0.50;;
545;SDS011;259;53.304;9.816;2024-01-16T05:52:35;0.73;;;0.40;;
545;SDS011;259;53.304;9.816;2024-01-16T05:55:01;0.70;;;0.50;;
545;SDS011;259;53.304;9.816;2024-01-16T05:57:28;0.60;;;0.50;;
545;SDS011;259;53.304;9.816;2024-01-16T05:59:58;0.97;;;0.67;;
545;SDS011;259;53.304;9.816;2024-01-16T06:02:27;0.70;;;0.50;;
545;SDS011;259;53.304;9.816;2024-01-16T06:04:52;0.70;;;0.50;;
545;SDS011;259;53.304;9.816;2024-01-16T06:07:18;3.83;;;1.13;;
545;SDS011;259;53.304;9.816;2024-01-16T06:09:43;2.87;;;1.30;;
545;SDS011;259;53.304;9.816;2024-01-16T06:12:09;1.67;;;1.13;;
545;SDS011;259;53.304;9.816;2024-01-16T06:14:37;2.43;;;1.20;;
545;SDS011;259;53.304;9.816;2024-01-16T06:17:03;1.70;;;1.03;;
545;SDS011;259;53.304;9.816;2024-01-16T06:19:30;3.37;;;2.20;;
545;SDS011;259;53.304;9.816;2024-01-16T06:21:57;2.20;;;1.00;;
545;SDS011;259;53.304;9.816;2024-01-16T06:24:23;3.23;;;1.00;;
545;SDS011;259;53.304;9.816;2024-01-16T06:26:49;2.10;;;1.07;;
545;SDS011;259;53.304;9.816;2024-01-16T06:29:15;4.00;;;1.10;;
545;SDS011;259;53.304;9.816;2024-01-16T06:31:40;1.63;;;0.93;;
545;SDS011;259;53.304;9.816;2024-01-16T06:34:06;1.70;;;1.60;;
545;SDS011;259;53.304;9.816;2024-01-16T06:36:32;1.43;;;1.03;;
545;SDS011;259;53.304;9.816;2024-01-16T06:38:57;0.83;;;0.83;;
545;SDS011;259;53.304;9.816;2024-01-16T06:41:23;1.40;;;1.20;;
545;SDS011;259;53.304;9.816;2024-01-16T06:43:49;2.33;;;1.40;;
545;SDS011;259;53.304;9.816;2024-01-16T06:46:14;4.13;;;1.30;;
545;SDS011;259;53.304;9.816;2024-01-16T06:48:40;1.47;;;1.00;;
545;SDS011;259;53.304;9.816;2024-01-16T06:51:06;2.63;;;1.17;;
545;SDS011;259;53.304;9.816;2024-01-16T06:53:33;2.20;;;1.30;;
545;SDS011;259;53.304;9.816;2024-01-16T06:55:58;1.90;;;1.40;;
545;SDS011;259;53.304;9.816;2024-01-16T06:58:24;2.30;;;1.13;;
545;SDS011;259;53.304;9.816;2024-01-16T07:00:50;1.10;;;1.03;;
545;SDS011;259;53.304;9.816;2024-01-16T07:03:15;1.50;;;1.07;;
545;SDS011;259;53.304;9.816;2024-01-16T07:05:42;1.77;;;1.30;;
545;SDS011;259;53.304;9.816;2024-01-16T07:08:08;1.50;;;1.33;;
545;SDS011;259;53.304;9.816;2024-01-16T07:10:34;1.60;;;1.40;;
545;SDS011;259;53.304;9.816;2024-01-16T07:13:00;1.80;;;1.70;;
545;SDS011;259;53.304;9.816;2024-01-16T07:15:26;1.40;;;0.90;;
545;SDS011;259;53.304;9.816;2024-01-16T07:17:52;1.43;;;1.33;;
545;SDS011;259;53.304;9.816;2024-01-16T07:20:18;1.10;;;1.00;;
545;SDS011;259;53.304;9.816;2024-01-16T07:22:44;3.17;;;1.40;;
545;SDS011;259;53.304;9.816;2024-01-16T07:25:10;1.17;;;1.07;;
545;SDS011;259;53.304;9.816;2024-01-16T07:27:36;1.40;;;1.30;;
545;SDS011;259;53.304;9.816;2024-01-16T07:30:04;2.50;;;1.33;;
545;SDS011;259;53.304;9.816;2024-01-16T07:32:31;1.40;;;1.17;;
545;SDS011;259;53.304;9.816;2024-01-16T07:34:57;1.00;;;0.90;;
545;SDS011;259;53.304;9.816;2024-01-16T07:37:23;1.90;;;1.80;;
545;SDS011;259;53.304;9.816;2024-01-16T07:39:48;1.30;;;1.20;;
545;SDS011;259;53.304;9.816;2024-01-16T07:42:14;1.30;;;1.20;;
545;SDS011;259;53.304;9.816;2024-01-16T07:44:40;1.63;;;1.20;;
545;SDS011;259;53.304;9.816;2024-01-16T07:47:05;1.20;;;1.10;;
545;SDS011;259;53.304;9.816;2024-01-16T07:49:31;1.67;;;1.20;;
545;SDS011;259;53.304;9.816;2024-01-16T07:51:57;2.23;;;1.13;;
545;SDS011;259;53.304;9.816;2024-01-16T07:54:23;1.33;;;1.20;;
545;SDS011;259;53.304;9.816;2024-01-16T07:56:50;1.70;;;1.30;;
545;SDS011;259;53.304;9.816;2024-01-16T07:59:16;1.63;;;0.83;;
545;SDS011;259;53.304;9.816;2024-01-16T08:01:42;0.80;;;0.80;;
545;SDS011;259;53.304;9.816;2024-01-16T08:04:08;1.07;;;0.97;;
545;SDS011;259;53.304;9.816;2024-01-16T08:06:34;1.40;;;1.10;;
545;SDS011;259;53.304;9.816;2024-01-16T08:09:00;1.50;;;1.03;;
545;SDS011;259;53.304;9.816;2024-01-16T08:11:25;1.00;;;1.00;;
545;SDS011;259;53.304;9.816;2024-01-16T08:13:51;1.07;;;0.80;;
545;SDS011;259;53.304;9.816;2024-01-16T08:16:17;0.80;;;0.73;;
545;SDS011;259;53.304;9.816;2024-01-16T08:18:42;1.70;;;1.60;;
545;SDS011;259;53.304;9.816;2024-01-16T08:21:08;2.90;;;1.13;;
545;SDS011;259;53.304;9.816;2024-01-16T08:23:34;0.83;;;0.77;;
545;SDS011;259;53.304;9.816;2024-01-16T08:25:59;1.87;;;0.93;;
545;SDS011;259;53.304;9.816;2024-01-16T08:28:26;0.83;;;0.83;;
545;SDS011;259;53.304;9.816;2024-01-16T08:30:53;1.03;;;0.97;;
545;SDS011;259;53.304;9.816;2024-01-16T08:33:19;1.00;;;0.90;;
545;SDS011;259;53.304;9.816;2024-01-16T08:35:44;1.57;;;1.17;;
545;SDS011;259;53.304;9.816;2024-01-16T08:38:10;1.30;;;1.20;;
545;SDS011;259;53.304;9.816;2024-01-16T08:40:36;0.90;;;0.90;;
545;SDS011;259;53.304;9.816;2024-01-16T08:43:01;1.43;;;1.17;;
545;SDS011;259;53.304;9.816;2024-01-16T08:45:28;1.47;;;1.17;;
545;SDS011;259;53.304;9.816;2024-01-16T08:47:54;0.90;;;0.90;;
545;SDS011;259;53.304;9.816;2024-01-16T08:50:20;0.83;;;0.83;;
545;SDS011;259;53.304;9.816;2024-01-16T08:52:46;1.13;;;1.03;;
545;SDS011;259;53.304;9.816;2024-01-16T08:55:12;1.90;;;1.17;;
545;SDS011;259;53.304;9.816;2024-01-16T08:57:37;0.90;;;0.67;;
545;SDS011;259;53.304;9.816;2024-01-16T09:00:04;1.13;;;1.03;;
545;SDS011;259;53.304;9.816;2024-01-16T09:02:30;0.77;;;0.77;;
545;SDS011;259;53.304;9.816;2024-01-16T09:04:56;2.40;;;1.23;;
545;SDS011;259;53.304;9.816;2024-01-16T09:07:23;0.90;;;0.90;;
545;SDS011;259;53.304;9.816;2024-01-16T09:09:51;0.90;;;0.80;;
545;SDS011;259;53.304;9.816;2024-01-16T09:12:17;2.03;;;1.07;;
545;SDS011;259;53.304;9.816;2024-01-16T09:14:43;1.37;;;0.90;;
545;SDS011;259;53.304;9.816;2024-01-16T09:17:08;0.80;;;0.80;;
545;SDS011;259;53.304;9.816;2024-01-16T09:19:34;0.90;;;0.90;;
545;SDS011;259;53.304;9.816;2024-01-16T09:22:00;1.10;;;0.97;;
545;SDS011;259;53.304;9.816;2024-01-16T09:24:26;0.93;;;0.93;;
545;SDS011;259;53.304;9.816;2024-01-16T09:26:52;1.20;;;1.10;;
545;SDS011;259;53.304;9.816;2024-01-16T09:29:17;2.00;;;1.13;;
545;SDS011;259;53.304;9.816;2024-01-16T09:31:43;0.80;;;0.80;;
545;SDS011;259;53.304;9.816;2024-01-16T09:34:09;0.90;;;0.90;;
545;SDS011;259;53.304;9.816;2024-01-16T09:36:35;1.53;;;0.80;;
545;SDS011;259;53.304;9.816;2024-01-16T09:39:02;0.97;;;0.90;;
545;SDS011;259;53.304;9.816;2024-01-16T09:41:32;0.70;;;0.70;;
545;SDS011;259;53.304;9.816;2024-01-16T09:44:02;0.70;;;0.70;;
545;SDS011;259;53.304;9.816;2024-01-16T09:46:29;1.37;;;1.20;;
545;SDS011;259;53.304;9.816;2024-01-16T09:48:56;0.87;;;0.80;;
545;SDS011;259;53.304;9.816;2024-01-16T09:51:25;0.97;;;0.80;;
545;SDS011;259;53.304;9.816;2024-01-16T09:53:50;0.80;;;0.80;;
545;SDS011;259;53.304;9.816;2024-01-16T09:56:20;1.17;;;1.00;;
545;SDS011;259;53.304;9.816;2024-01-16T09:58:49;0.77;;;0.77;;
545;SDS011;259;53.304;9.816;2024-01-16T10:01:21;1.00;;;0.97;;
545;SDS011;259;53.304;9.816;2024-01-16T10:03:52;0.97;;;0.87;;
545;SDS011;259;53.304;9.816;2024-01-16T10:06:17;0.87;;;0.87;;
545;SDS011;259;53.304;9.816;2024-01-16T10:08:46;1.20;;;1.00;;
545;SDS011;259;53.304;9.816;2024-01-16T10:11:12;0.70;;;0.67;;
545;SDS011;259;53.304;9.816;2024-01-16T10:13:37;0.70;;;0.70;;
545;SDS011;259;53.304;9.816;2024-01-16T10:16:03;1.10;;;0.80;;
545;SDS011;259;53.304;9.816;2024-01-16T10:18:29;1.00;;;0.90;;
545;SDS011;259;53.304;9.816;2024-01-16T10:20:55;0.90;;;0.90;;
545;SDS011;259;53.304;9.816;2024-01-16T10:28:36;1.33;;;1.10;;
545;SDS011;259;53.304;9.816;2024-01-16T10:31:09;1.13;;;1.03;;
545;SDS011;259;53.304;9.816;2024-01-16T10:33:37;1.40;;;1.10;;
545;SDS011;259;53.304;9.816;2024-01-16T10:38:37;1.30;;;1.20;;
545;SDS011;259;53.304;9.816;2024-01-16T10:41:13;1.47;;;0.90;;
545;SDS011;259;53.304;9.816;2024-01-16T10:43:42;0.97;;;0.97;;
545;SDS011;259;53.304;9.816;2024-01-16T10:48:43;1.03;;;0.97;;
545;SDS011;259;53.304;9.816;2024-01-16T10:51:11;1.30;;;1.20;;
545;SDS011;259;53.304;9.816;2024-01-16T10:53:43;1.03;;;0.80;;
545;SDS011;259;53.304;9.816;2024-01-16T10:56:11;1.00;;;0.90;;
545;SDS011;259;53.304;9.816;2024-01-16T10:58:41;1.10;;;1.10;;
545;SDS011;259;53.304;9.816;2024-01-16T11:01:15;1.27;;;1.00;;
545;SDS011;259;53.304;9.816;2024-01-16T11:03:46;1.53;;;1.00;;
545;SDS011;259;53.304;9.816;2024-01-16T11:06:14;1.20;;;1.10;;
545;SDS011;259;53.304;9.816;2024-01-16T11:08:43;1.53;;;1.20;;
545;SDS011;259;53.304;9.816;2024-01-16T11:11:12;0.83;;;0.83;;
545;SDS011;259;53.304;9.816;2024-01-16T11:13:39;1.00;;;0.90;;
545;SDS011;259;53.304;9.816;2024-01-16T11:16:09;1.17;;;1.00;;
545;SDS011;259;53.304;9.816;2024-01-16T11:18:36;1.30;;;1.20;;
545;SDS011;259;53.304;9.816;2024-01-16T11:21:02;1.00;;;1.00;;
545;SDS011;259;53.304;9.816;2024-01-16T11:23:32;1.23;;;1.13;;
545;SDS011;259;53.304;9.816;2024-01-16T11:25:57;1.27;;;1.03;;
545;SDS011;259;53.304;9.816;2024-01-16T11:28:27;1.77;;;1.43;;
545;SDS011;259;53.304;9.816;2024-01-16T11:30:56;1.30;;;1.20;;
545;SDS011;259;53.304;9.816;2024-01-16T11:35:57;1.10;;;1.10;;
545;SDS011;259;53.304;9.816;2024-01-16T11:38:24;1.73;;;1.20;;
545;SDS011;259;53.304;9.816;2024-01-16T11:40:54;1.83;;;1.40;;
545;SDS011;259;53.304;9.816;2024-01-16T11:45:59;1.47;;;1.37;;
545;SDS011;259;53.304;9.816;2024-01-16T11:48:32;1.60;;;1.50;;
545;SDS011;259;53.304;9.816;2024-01-16T11:50:58;1.37;;;1.27;;
545;SDS011;259;53.304;9.816;2024-01-16T12:01:57;1.20;;;1.10;;
545;SDS011;259;53.304;9.816;2024-01-16T12:04:24;1.40;;;1.30;;
545;SDS011;259;53.304;9.816;2024-01-16T12:06:56;2.00;;;1.90;;
545;SDS011;259;53.304;9.816;2024-01-16T12:09:25;1.73;;;1.63;;
545;SDS011;259;53.304;9.816;2024-01-16T12:11:59;1.30;;;1.20;;
545;SDS011;259;53.304;9.816;2024-01-16T12:14:29;1.30;;;1.30;;
545;SDS011;259;53.304;9.816;2024-01-16T12:17:13;1.60;;;1.50;;
545;SDS011;259;53.304;9.816;2024-01-16T12:19:40;1.60;;;1.50;;
545;SDS011;259;53.304;9.816;2024-01-16T12:22:10;1.37;;;1.27;;
545;SDS011;259;53.304;9.816;2024-01-16T12:24:39;1.37;;;1.27;;
545;SDS011;259;53.304;9.816;2024-01-16T12:27:05;1.83;;;1.47;;
545;SDS011;259;53.304;9.816;2024-01-16T12:29:32;1.47;;;1.37;;
545;SDS011;259;53.304;9.816;2024-01-16T12:34:34;1.27;;;1.27;;
545;SDS011;259;53.304;9.816;2024-01-16T12:37:06;1.40;;;1.30;;
545;SDS011;259;53.304;9.816;2024-01-16T12:39:32;1.37;;;1.27;;
545;SDS011;259;53.304;9.816;2024-01-16T12:42:00;1.70;;;1.60;;
545;SDS011;259;53.304;9.816;2024-01-16T12:44:29;1.30;;;1.20;;
545;SDS011;259;53.304;9.816;2024-01-16T12:46:55;1.30;;;1.20;;
545;SDS011;259;53.304;9.816;2024-01-16T12:49:22;1.50;;;1.40;;
545;SDS011;259;53.304;9.816;2024-01-16T12:51:49;1.47;;;1.37;;
545;SDS011;259;53.304;9.816;2024-01-16T12:54:16;1.40;;;1.30;;
545;SDS011;259;53.304;9.816;2024-01-16T12:56:43;1.33;;;1.23;;
545;SDS011;259;53.304;9.816;2024-01-16T12:59:13;1.80;;;1.70;;
545;SDS011;259;53.304;9.816;2024-01-16T13:01:46;1.50;;;1.40;;
545;SDS011;259;53.304;9.816;2024-01-16T13:04:12;1.90;;;1.70;;
545;SDS011;259;53.304;9.816;2024-01-16T13:06:40;1.50;;;1.40;;
545;SDS011;259;53.304;9.816;2024-01-16T13:09:11;2.10;;;1.30;;
545;SDS011;259;53.304;9.816;2024-01-16T13:11:51;1.50;;;1.40;;
545;SDS011;259;53.304;9.816;2024-01-16T13:14:20;1.40;;;1.30;;
545;SDS011;259;53.304;9.816;2024-01-16T13:16:47;1.60;;;1.50;;
545;SDS011;259;53.304;9.816;2024-01-16T13:19:18;2.23;;;2.07;;
545;SDS011;259;53.304;9.816;2024-01-16T13:21:44;1.70;;;1.60;;
545;SDS011;259;53.304;9.816;2024-01-16T13:24:10;1.80;;;1.70;;
545;SDS011;259;53.304;9.816;2024-01-16T13:26:36;1.73;;;1.63;;
545;SDS011;259;53.304;9.816;2024-01-16T13:29:02;1.47;;;1.37;;
545;SDS011;259;53.304;9.816;2024-01-16T13:31:28;1.80;;;1.70;;
545;SDS011;259;53.304;9.816;2024-01-16T13:33:54;2.10;;;1.90;;
545;SDS011;259;53.304;9.816;2024-01-16T13:36:21;1.50;;;1.50;;
545;SDS011;259;53.304;9.816;2024-01-16T13:38:48;1.90;;;1.80;;
545;SDS011;259;53.304;9.816;2024-01-16T13:41:14;1.60;;;1.50;;
545;SDS011;259;53.304;9.816;2024-01-16T13:43:40;1.60;;;1.50;;
545;SDS011;259;53.304;9.816;2024-01-16T13:46:06;1.50;;;1.50;;
545;SDS011;259;53.304;9.816;2024-01-16T13:48:33;1.90;;;1.80;;
545;SDS011;259;53.304;9.816;2024-01-16T13:50:59;2.07;;;1.87;;
545;SDS011;259;53.304;9.816;2024-01-16T13:53:25;2.10;;;2.00;;
545;SDS011;259;53.304;9.816;2024-01-16T13:55:52;2.63;;;2.10;;
545;SDS011;259;53.304;9.816;2024-01-16T13:58:18;1.70;;;1.60;;
545;SDS011;259;53.304;9.816;2024-01-16T14:00:43;2.13;;;1.80;;
545;SDS011;259;53.304;9.816;2024-01-16T14:03:09;1.70;;;1.60;;
545;SDS011;259;53.304;9.816;2024-01-16T14:05:35;1.57;;;1.47;;
545;SDS011;259;53.304;9.816;2024-01-16T14:08:01;1.63;;;1.53;;
545;SDS011;259;53.304;9.816;2024-01-16T14:10:27;1.50;;;1.40;;
545;SDS011;259;53.304;9.816;2024-01-16T14:12:53;1.70;;;1.60;;
545;SDS011;259;53.304;9.816;2024-01-16T14:15:20;1.93;;;1.83;;
545;SDS011;259;53.304;9.816;2024-01-16T14:17:54;2.57;;;2.00;;
545;SDS011;259;53.304;9.816;2024-01-16T14:20:21;1.63;;;1.53;;
545;SDS011;259;53.304;9.816;2024-01-16T14:22:52;1.77;;;1.67;;
545;SDS011;259;53.304;9.816;2024-01-16T14:25:18;1.60;;;1.50;;
545;SDS011;259;53.304;9.816;2024-01-16T14:27:45;1.67;;;1.57;;
545;SDS011;259;53.304;9.816;2024-01-16T14:30:24;1.63;;;1.53;;
545;SDS011;259;53.304;9.816;2024-01-16T14:32:50;2.20;;;2.00;;
545;SDS011;259;53.304;9.816;2024-01-16T14:35:16;1.67;;;1.57;;
545;SDS011;259;53.304;9.816;2024-01-16T14:37:44;1.73;;;1.63;;
545;SDS011;259;53.304;9.816;2024-01-16T14:40:10;1.73;;;1.60;;
545;SDS011;259;53.304;9.816;2024-01-16T14:42:45;2.07;;;1.97;;
545;SDS011;259;53.304;9.816;2024-01-16T14:45:18;2.10;;;2.00;;
545;SDS011;259;53.304;9.816;2024-01-16T14:47:48;1.70;;;1.60;;
545;SDS011;259;53.304;9.816;2024-01-16T14:50:15;1.83;;;1.73;;
545;SDS011;259;53.304;9.816;2024-01-16T14:52:46;1.70;;;1.60;;
545;SDS011;259;53.304;9.816;2024-01-16T14:55:16;1.80;;;1.70;;
545;SDS011;259;53.304;9.816;2024-01-16T14:57:42;2.10;;;2.00;;
545;SDS011;259;53.304;9.816;2024-01-16T15:00:09;1.70;;;1.60;;
545;SDS011;259;53.304;9.816;2024-01-16T15:02:40;1.77;;;1.67;;
545;SDS011;259;53.304;9.816;2024-01-16T15:05:09;1.97;;;1.87;;
545;SDS011;259;53.304;9.816;2024-01-16T15:07:35;2.10;;;2.00;;
545;SDS011;259;53.304;9.816;2024-01-16T15:10:02;1.90;;;1.80;;
545;SDS011;259;53.304;9.816;2024-01-16T15:12:34;2.00;;;1.80;;
545;SDS011;259;53.304;9.816;2024-01-16T15:15:00;1.80;;;1.70;;
545;SDS011;259;53.304;9.816;2024-01-16T15:17:28;1.87;;;1.77;;
545;SDS011;259;53.304;9.816;2024-01-16T15:19:54;1.70;;;1.60;;
545;SDS011;259;53.304;9.816;2024-01-16T15:22:20;2.00;;;1.90;;
545;SDS011;259;53.304;9.816;2024-01-16T15:24:46;1.77;;;1.67;;
545;SDS011;259;53.304;9.816;2024-01-16T15:27:12;2.07;;;1.97;;
545;SDS011;259;53.304;9.816;2024-01-16T15:29:38;2.07;;;1.97;;
545;SDS011;259;53.304;9.816;2024-01-16T15:32:04;1.53;;;1.43;;
545;SDS011;259;53.304;9.816;2024-01-16T15:34:30;1.80;;;1.70;;
545;SDS011;259;53.304;9.816;2024-01-16T15:36:55;2.63;;;2.43;;
545;SDS011;259;53.304;9.816;2024-01-16T15:39:23;1.50;;;1.40;;
545;SDS011;259;53.304;9.816;2024-01-16T15:41:49;1.67;;;1.57;;
545;SDS011;259;53.304;9.816;2024-01-16T15:44:15;1.60;;;1.50;;
545;SDS011;259;53.304;9.816;2024-01-16T15:49:39;1.67;;;1.57;;
545;SDS011;259;53.304;9.816;2024-01-16T15:52:04;1.60;;;1.50;;
545;SDS011;259;53.304;9.816;2024-01-16T15:54:31;1.67;;;1.57;;
545;SDS011;259;53.304;9.816;2024-01-16T15:56:57;1.60;;;1.50;;
545;SDS011;259;53.304;9.816;2024-01-16T15:59:23;1.60;;;1.50;;
545;SDS011;259;53.304;9.816;2024-01-16T16:01:49;1.80;;;1.70;;
545;SDS011;259;53.304;9.816;2024-01-16T16:04:16;1.50;;;1.40;;
545;SDS011;259;53.304;9.816;2024-01-16T16:06:42;1.77;;;1.67;;
545;SDS011;259;53.304;9.816;2024-01-16T16:09:08;1.63;;;1.53;;
545;SDS011;259;53.304;9.816;2024-01-16T16:11:39;2.13;;;1.70;;
545;SDS011;259;53.304;9.816;2024-01-16T16:14:09;2.37;;;2.17;;